createdAt,value
2018-06-28T00:01:42.172Z,19.30
2018-06-28T00:04:23.168Z,19.30
2018-06-28T00:07:04.400Z,19.30
2018-06-28T00:09:48.652Z,19.30
2018-06-28T00:15:10.985Z,19.30
2018-06-28T00:20:34.941Z,19.20
2018-06-28T00:23:15.107Z,19.10
2018-06-28T00:25:55.980Z,19.10
2018-06-28T00:28:35.923Z,18.90
2018-06-28T00:31:18.251Z,19.00
2018-06-28T00:33:55.351Z,18.90
2018-06-28T00:36:41.166Z,18.90
2018-06-28T00:39:21.340Z,18.90
2018-06-28T00:42:03.010Z,18.80
2018-06-28T00:52:49.022Z,18.60
2018-06-28T00:55:28.056Z,18.60
2018-06-28T00:58:07.522Z,18.60
2018-06-28T01:03:34.797Z,18.50
2018-06-28T01:06:17.038Z,18.50
2018-06-28T01:11:37.294Z,18.40
2018-06-28T01:14:17.380Z,18.40
2018-06-28T01:16:58.113Z,18.40
2018-06-28T01:22:25.641Z,18.30
2018-06-28T01:25:06.562Z,18.20
2018-06-28T01:27:48.143Z,18.10
2018-06-28T01:30:30.697Z,18.20
2018-06-28T01:33:12.417Z,18.20
2018-06-28T01:38:32.863Z,18.10
2018-06-28T01:41:14.518Z,18.10
2018-06-28T01:43:55.069Z,18.10
2018-06-28T01:46:35.709Z,18.00
2018-06-28T01:49:14.438Z,18.00
2018-06-28T01:51:58.773Z,18.00
2018-06-28T01:54:40.857Z,18.00
2018-06-28T01:57:23.325Z,18.00
2018-06-28T02:00:05.898Z,18.10
2018-06-28T02:05:32.687Z,18.00
2018-06-28T02:08:12.231Z,17.90
2018-06-28T02:10:54.806Z,17.90
2018-06-28T02:13:33.675Z,17.90
2018-06-28T02:16:10.848Z,17.80
2018-06-28T02:18:51.515Z,17.80
2018-06-28T02:21:30.840Z,17.70
2018-06-28T02:24:10.962Z,17.70
2018-06-28T02:26:56.489Z,17.70
2018-06-28T02:29:39.470Z,17.70
2018-06-28T02:32:21.876Z,17.70
2018-06-28T02:37:45.770Z,17.70
2018-06-28T02:40:25.544Z,17.60
2018-06-28T02:43:01.953Z,17.70
2018-06-28T02:45:47.125Z,17.70
2018-06-28T02:48:28.590Z,17.60
2018-06-28T02:51:13.481Z,17.60
2018-06-28T02:56:38.123Z,17.60
2018-06-28T02:59:19.329Z,17.60
2018-06-28T03:02:03.511Z,17.70
2018-06-28T03:04:46.024Z,17.60
2018-06-28T03:07:26.502Z,17.60
2018-06-28T03:10:06.163Z,17.60
2018-06-28T03:12:47.904Z,17.60
2018-06-28T03:15:28.718Z,17.60
2018-06-28T03:18:06.991Z,17.70
2018-06-28T03:20:46.678Z,17.50
2018-06-28T03:26:05.450Z,17.50
2018-06-28T03:28:45.499Z,17.30
2018-06-28T03:31:29.029Z,17.20
2018-06-28T03:34:12.856Z,17.20
2018-06-28T03:39:38.082Z,17.20
2018-06-28T03:42:19.936Z,17.20
2018-06-28T03:44:56.277Z,17.30
2018-06-28T03:47:36.290Z,17.40
2018-06-28T03:50:16.904Z,17.30
2018-06-28T03:52:56.866Z,17.40
2018-06-28T03:58:23.172Z,17.50
2018-06-28T04:01:07.432Z,17.50
2018-06-28T04:03:48.934Z,17.50
2018-06-28T04:06:29.661Z,17.50
2018-06-28T04:09:13.131Z,17.40
2018-06-28T04:12:03.349Z,17.30
2018-06-28T04:14:44.551Z,17.20
2018-06-28T04:25:37.803Z,17.20
2018-06-28T04:28:16.314Z,17.20
2018-06-28T04:30:53.179Z,17.30
2018-06-28T04:33:29.106Z,17.60
2018-06-28T04:36:11.838Z,17.70
2018-06-28T04:38:50.719Z,18.30
2018-06-28T04:41:31.224Z,19.20
2018-06-28T04:44:12.387Z,20.30
2018-06-28T04:46:54.515Z,21.10
2018-06-28T04:49:35.436Z,21.10
2018-06-28T04:52:21.221Z,20.70
2018-06-28T04:55:01.174Z,21.80
2018-06-28T04:57:43.271Z,22.90
2018-06-28T05:00:23.621Z,23.50
2018-06-28T05:03:04.416Z,22.50
2018-06-28T05:05:45.596Z,22.70
2018-06-28T05:08:27.202Z,23.10
2018-06-28T05:11:08.272Z,26.40
2018-06-28T05:13:51.229Z,28.20
2018-06-28T05:19:16.411Z,29.80
2018-06-28T05:22:00.886Z,30.00
2018-06-28T05:24:44.288Z,30.20
2018-06-28T05:27:25.064Z,30.20
2018-06-28T05:30:06.006Z,30.60
2018-06-28T05:32:43.090Z,30.80
2018-06-28T05:35:25.380Z,28.40
2018-06-28T05:38:05.832Z,26.10
2018-06-28T05:40:50.445Z,24.60
2018-06-28T05:43:31.753Z,23.10
2018-06-28T05:46:16.540Z,22.40
2018-06-28T05:48:55.933Z,22.40
2018-06-28T05:54:23.521Z,21.90
2018-06-28T05:56:58.934Z,21.90
2018-06-28T05:59:38.552Z,21.90
2018-06-28T06:02:19.495Z,21.90
2018-06-28T06:04:56.394Z,22.10
2018-06-28T06:07:32.571Z,22.10
2018-06-28T06:12:59.620Z,22.00
2018-06-28T06:21:09.062Z,21.30
2018-06-28T06:29:11.357Z,21.50
2018-06-28T06:31:51.879Z,21.70
2018-06-28T06:34:32.225Z,21.60
2018-06-28T06:37:14.825Z,21.70
2018-06-28T06:39:42.357Z,21.70
2018-06-28T06:42:09.311Z,21.80
2018-06-28T06:44:36.305Z,21.60
2018-06-28T06:47:03.324Z,21.50
2018-06-28T06:49:30.261Z,21.80
2018-06-28T06:51:57.962Z,22.00
2018-06-28T06:54:24.914Z,22.00
2018-06-28T06:56:51.790Z,22.10
2018-06-28T06:59:18.725Z,22.10
2018-06-28T07:01:45.668Z,22.10
2018-06-28T07:04:12.547Z,22.10
2018-06-28T07:06:39.527Z,22.50
2018-06-28T07:09:06.389Z,22.50
2018-06-28T07:11:33.266Z,22.60
2018-06-28T07:14:00.222Z,22.50
2018-06-28T07:16:27.125Z,22.70
2018-06-28T07:18:54.072Z,22.60
2018-06-28T07:21:20.945Z,22.90
2018-06-28T07:23:52.500Z,22.80
2018-06-28T07:26:19.381Z,22.80
2018-06-28T07:28:54.020Z,22.60
2018-06-28T07:31:20.952Z,22.60
2018-06-28T07:34:03.552Z,22.90
2018-06-28T07:36:43.247Z,22.80
2018-06-28T07:39:17.155Z,22.80
2018-06-28T07:41:55.116Z,22.90
2018-06-28T07:44:23.350Z,23.20
2018-06-28T07:46:50.339Z,23.40
2018-06-28T07:49:25.190Z,23.60
2018-06-28T07:51:52.450Z,23.50
2018-06-28T07:54:28.043Z,23.80
2018-06-28T07:56:55.966Z,24.40
2018-06-28T07:59:22.889Z,24.30
2018-06-28T08:01:50.596Z,24.60
2018-06-28T08:04:17.959Z,24.60
2018-06-28T08:06:48.465Z,24.90
2018-06-28T08:09:29.907Z,24.80
2018-06-28T08:11:58.098Z,26.50
2018-06-28T08:14:27.658Z,26.10
2018-06-28T08:16:55.345Z,25.80
2018-06-28T08:19:26.810Z,26.20
2018-06-28T08:21:53.909Z,26.20
2018-06-28T08:24:21.342Z,26.60
2018-06-28T08:26:48.882Z,27.60
2018-06-28T08:29:28.796Z,26.80
2018-06-28T08:31:57.062Z,26.30
2018-06-28T08:34:24.213Z,27.30
2018-06-28T08:36:51.438Z,27.90
2018-06-28T08:39:18.968Z,28.40
2018-06-28T08:41:46.954Z,29.10
2018-06-28T08:44:14.172Z,29.10
2018-06-28T08:46:41.460Z,29.00
2018-06-28T08:49:08.914Z,29.90
2018-06-28T08:51:36.109Z,30.70
2018-06-28T08:54:03.422Z,30.60
2018-06-28T08:56:30.893Z,31.20
2018-06-28T08:58:58.074Z,31.50
2018-06-28T09:01:25.314Z,31.80
2018-06-28T09:03:52.747Z,32.10
2018-06-28T09:06:19.743Z,31.70
2018-06-28T09:08:47.290Z,30.60
2018-06-28T09:11:16.670Z,30.30
2018-06-28T09:13:44.332Z,31.00
2018-06-28T09:16:16.289Z,31.30
2018-06-28T09:18:44.090Z,30.90
2018-06-28T09:21:19.547Z,30.90
2018-06-28T09:23:47.133Z,31.00
2018-06-28T09:26:15.376Z,30.70
2018-06-28T09:28:46.445Z,29.90
2018-06-28T09:31:14.416Z,30.20
2018-06-28T09:33:48.039Z,30.30
2018-06-28T09:36:16.645Z,31.40
2018-06-28T09:38:44.564Z,31.90
2018-06-28T09:41:18.701Z,30.50
2018-06-28T09:43:59.311Z,30.00
2018-06-28T09:46:35.006Z,30.00
2018-06-28T09:49:16.145Z,30.10
2018-06-28T09:51:44.142Z,30.10
2018-06-28T09:54:11.014Z,30.90
2018-06-28T09:56:38.004Z,29.10
2018-06-28T09:59:04.949Z,28.70
2018-06-28T10:01:32.016Z,29.00
2018-06-28T10:04:02.273Z,29.50
2018-06-28T10:06:29.443Z,29.70
2018-06-28T10:08:57.463Z,29.80
2018-06-28T10:11:33.627Z,30.10
2018-06-28T10:14:14.983Z,30.70
2018-06-28T10:16:51.761Z,31.20
2018-06-28T10:19:29.338Z,30.10
2018-06-28T10:22:03.947Z,30.10
2018-06-28T10:24:41.705Z,31.20
2018-06-28T10:27:13.744Z,30.80
2018-06-28T10:29:53.379Z,30.70
2018-06-28T10:32:32.230Z,30.00
2018-06-28T10:34:59.982Z,29.90
2018-06-28T10:37:30.377Z,28.70
2018-06-28T10:39:57.490Z,28.30
2018-06-28T10:42:25.617Z,29.20
2018-06-28T10:44:56.700Z,29.00
2018-06-28T10:47:33.853Z,29.00
2018-06-28T10:50:09.819Z,28.60
2018-06-28T10:52:44.154Z,28.50
2018-06-28T10:55:15.419Z,29.30
2018-06-28T10:57:45.814Z,29.50
2018-06-28T11:03:08.520Z,30.40
2018-06-28T11:05:44.877Z,29.50
2018-06-28T11:08:29.286Z,28.80
2018-06-28T11:11:10.418Z,29.80
2018-06-28T11:16:33.959Z,29.30
2018-06-28T11:19:14.429Z,28.80
2018-06-28T11:21:52.098Z,28.90
2018-06-28T11:24:35.174Z,29.10
2018-06-28T11:27:16.271Z,29.30
2018-06-28T11:29:56.703Z,28.90
2018-06-28T11:32:39.754Z,29.00
2018-06-28T11:35:17.783Z,29.60
2018-06-28T11:38:00.208Z,29.50
2018-06-28T11:40:41.821Z,29.30
2018-06-28T11:43:25.637Z,29.00
2018-06-28T11:46:01.532Z,28.80
2018-06-28T11:48:31.200Z,28.80
2018-06-28T11:51:03.222Z,28.30
2018-06-28T11:53:31.194Z,28.70
2018-06-28T11:55:58.535Z,29.40
2018-06-28T11:58:29.263Z,29.90
2018-06-28T12:01:02.447Z,29.40
2018-06-28T12:03:36.258Z,29.30
2018-06-28T12:06:10.456Z,29.40
2018-06-28T12:08:44.743Z,28.50
2018-06-28T12:11:23.919Z,28.60
2018-06-28T12:14:04.472Z,28.40
2018-06-28T12:19:26.641Z,28.20
2018-06-28T12:22:07.042Z,29.00
2018-06-28T12:24:45.232Z,29.80
2018-06-28T12:32:49.427Z,30.10
2018-06-28T12:35:31.609Z,29.50
2018-06-28T12:38:14.005Z,29.30
2018-06-28T12:40:54.616Z,29.40
2018-06-28T12:46:14.255Z,29.40
2018-06-28T12:48:54.574Z,29.60
2018-06-28T12:51:39.210Z,28.90
2018-06-28T12:56:52.606Z,28.80
2018-06-28T12:59:26.847Z,28.50
2018-06-28T13:04:50.040Z,29.00
2018-06-28T13:07:29.351Z,28.50
2018-06-28T13:12:44.958Z,29.00
2018-06-28T13:15:12.811Z,29.10
2018-06-28T13:17:45.845Z,28.90
2018-06-28T13:20:17.249Z,28.90
2018-06-28T13:22:49.989Z,28.30
2018-06-28T13:25:23.175Z,28.30
2018-06-28T13:28:05.027Z,28.90
2018-06-28T13:30:47.332Z,29.10
2018-06-28T13:33:23.804Z,29.60
2018-06-28T13:38:42.486Z,28.60
2018-06-28T13:41:10.470Z,29.30
2018-06-28T13:43:47.674Z,29.40
2018-06-28T13:46:23.289Z,28.80
2018-06-28T13:49:03.117Z,29.20
2018-06-28T13:51:46.196Z,29.30
2018-06-28T13:54:27.177Z,29.30
2018-06-28T13:56:55.376Z,29.10
2018-06-28T13:59:34.166Z,28.50
2018-06-28T14:02:12.853Z,28.60
2018-06-28T14:04:51.674Z,28.30
2018-06-28T14:07:31.425Z,27.70
2018-06-28T14:10:07.869Z,27.70
2018-06-28T14:12:36.201Z,27.70
2018-06-28T14:15:04.612Z,27.80
2018-06-28T14:17:37.322Z,27.80
2018-06-28T14:20:08.805Z,28.00
2018-06-28T14:25:28.762Z,28.10
2018-06-28T14:30:35.712Z,28.10
2018-06-28T14:33:03.745Z,28.10
2018-06-28T14:35:35.557Z,28.90
2018-06-28T14:38:07.420Z,29.20
2018-06-28T14:40:34.708Z,29.10
2018-06-28T14:43:05.484Z,28.90
2018-06-28T14:45:32.796Z,28.90
2018-06-28T14:48:01.588Z,28.80
2018-06-28T14:50:32.483Z,28.40
2018-06-28T14:53:01.057Z,28.30
2018-06-28T14:55:31.060Z,28.60
2018-06-28T14:58:03.282Z,28.80
2018-06-28T15:00:30.645Z,28.90
2018-06-28T15:02:57.544Z,29.10
2018-06-28T15:05:24.507Z,28.90
2018-06-28T15:07:51.397Z,29.20
2018-06-28T15:10:27.333Z,29.60
2018-06-28T15:12:54.754Z,29.70
2018-06-28T15:15:23.492Z,29.50
2018-06-28T15:17:50.686Z,28.90
2018-06-28T15:20:19.476Z,28.50
2018-06-28T15:22:49.216Z,28.30
2018-06-28T15:25:17.413Z,28.10
2018-06-28T15:27:44.726Z,27.90
2018-06-28T15:30:11.638Z,27.80
2018-06-28T15:32:39.276Z,27.60
2018-06-28T15:35:06.215Z,27.60
2018-06-28T15:37:33.274Z,27.60
2018-06-28T15:40:00.161Z,27.70
2018-06-28T15:42:31.375Z,27.60
2018-06-28T15:44:58.798Z,27.60
2018-06-28T15:47:25.994Z,27.60
2018-06-28T15:52:35.760Z,27.50
2018-06-28T15:55:03.261Z,27.50
2018-06-28T15:57:30.830Z,27.60
2018-06-28T15:59:58.147Z,27.80
2018-06-28T16:02:25.986Z,28.30
2018-06-28T16:04:52.992Z,28.30
2018-06-28T16:07:19.968Z,28.60
2018-06-28T16:09:47.019Z,28.90
2018-06-28T16:12:14.244Z,28.90
2018-06-28T16:14:41.266Z,29.20
2018-06-28T16:17:10.949Z,29.20
2018-06-28T16:19:38.765Z,29.20
2018-06-28T16:22:06.770Z,29.00
2018-06-28T16:24:34.654Z,28.10
2018-06-28T16:27:02.057Z,28.10
2018-06-28T16:29:29.160Z,28.40
2018-06-28T16:31:56.183Z,28.60
2018-06-28T16:34:35.557Z,28.90
2018-06-28T16:37:16.064Z,29.00
2018-06-28T16:39:57.367Z,29.40
2018-06-28T16:42:35.600Z,29.60
2018-06-28T16:45:04.185Z,29.50
2018-06-28T16:47:31.449Z,29.50
2018-06-28T16:52:54.434Z,29.40
2018-06-28T16:55:24.837Z,28.80
2018-06-28T16:58:02.379Z,28.80
2018-06-28T17:00:43.155Z,28.80
2018-06-28T17:03:12.993Z,28.80
2018-06-28T17:05:54.467Z,28.50
2018-06-28T17:08:35.501Z,28.50
2018-06-28T17:11:19.472Z,28.60
2018-06-28T17:13:47.534Z,28.30
2018-06-28T17:16:16.506Z,28.30
2018-06-28T17:18:46.137Z,28.30
2018-06-28T17:21:14.926Z,28.60
2018-06-28T17:23:44.556Z,28.90
2018-06-28T17:26:14.426Z,29.10
2018-06-28T17:28:41.618Z,29.00
2018-06-28T17:31:09.891Z,28.60
2018-06-28T17:33:37.213Z,28.70
2018-06-28T17:36:04.316Z,28.40
2018-06-28T17:38:31.293Z,28.30
2018-06-28T17:41:00.785Z,28.10
2018-06-28T17:43:28.039Z,27.90
2018-06-28T17:45:55.017Z,27.80
2018-06-28T17:48:22.114Z,27.60
2018-06-28T17:50:54.039Z,27.50
2018-06-28T17:53:27.598Z,27.20
2018-06-28T17:55:59.433Z,27.30
2018-06-28T17:58:27.316Z,27.10
2018-06-28T18:00:56.205Z,27.00
2018-06-28T18:03:25.333Z,27.00
2018-06-28T18:05:54.435Z,27.00
2018-06-28T18:08:23.646Z,27.00
2018-06-28T18:10:53.735Z,26.90
2018-06-28T18:13:25.453Z,26.90
2018-06-28T18:15:52.973Z,26.90
2018-06-28T18:18:19.982Z,27.00
2018-06-28T18:20:48.081Z,26.90
2018-06-28T18:23:17.196Z,26.90
2018-06-28T18:25:44.341Z,26.90
2018-06-28T18:28:14.429Z,26.80
2018-06-28T18:30:44.469Z,26.70
2018-06-28T18:33:14.753Z,26.70
2018-06-28T18:35:46.875Z,26.50
2018-06-28T18:41:06.378Z,26.50
2018-06-28T18:43:43.876Z,26.50
2018-06-28T18:46:17.313Z,26.60
2018-06-28T18:48:49.453Z,26.60
2018-06-28T18:51:22.560Z,26.70
2018-06-28T18:54:03.295Z,26.70
2018-06-28T18:56:35.672Z,26.70
2018-06-28T18:59:05.467Z,26.80
2018-06-28T19:01:33.434Z,26.80
2018-06-28T19:04:02.946Z,26.70
2018-06-28T19:06:32.608Z,26.60
2018-06-28T19:09:04.114Z,26.60
2018-06-28T19:11:33.185Z,26.50
2018-06-28T19:14:01.890Z,26.50
2018-06-28T19:16:51.485Z,26.40
2018-06-28T19:19:21.448Z,26.30
2018-06-28T19:22:05.683Z,26.30
2018-06-28T19:24:35.517Z,26.30
2018-06-28T19:27:19.730Z,26.30
2018-06-28T19:32:51.730Z,26.20
2018-06-28T19:35:36.029Z,26.10
2018-06-28T19:38:16.704Z,25.90
2018-06-28T19:41:11.142Z,25.80
2018-06-28T19:43:54.565Z,25.60
2018-06-28T19:49:23.349Z,25.10
2018-06-28T19:52:08.243Z,25.10
2018-06-28T19:54:48.163Z,25.10
2018-06-28T19:57:30.560Z,25.10
2018-06-28T20:00:12.463Z,25.00
2018-06-28T20:03:09.369Z,25.00
2018-06-28T20:05:50.932Z,24.90
2018-06-28T20:08:31.175Z,24.80
2018-06-28T20:11:12.515Z,24.80
2018-06-28T20:13:53.718Z,24.70
2018-06-28T20:16:47.132Z,24.80
2018-06-28T20:19:42.680Z,24.70
2018-06-28T20:22:25.646Z,24.30
2018-06-28T20:25:06.981Z,24.40
2018-06-28T20:27:50.799Z,24.20
2018-06-28T20:33:27.821Z,24.00
2018-06-28T20:36:10.545Z,24.00
2018-06-28T20:38:48.582Z,24.00
2018-06-28T20:41:31.408Z,24.00
2018-06-28T20:44:10.622Z,24.00
2018-06-28T20:46:51.376Z,23.90
2018-06-28T20:49:32.900Z,23.60
2018-06-28T20:57:41.153Z,23.30
2018-06-28T21:00:22.008Z,23.30
2018-06-28T21:05:45.249Z,23.40
2018-06-28T21:08:23.682Z,23.30
2018-06-28T21:11:04.107Z,23.30
2018-06-28T21:16:30.665Z,23.50
2018-06-28T21:19:14.313Z,23.40
2018-06-28T21:21:58.316Z,23.50
2018-06-28T21:24:38.707Z,23.50
2018-06-28T21:27:20.479Z,23.50
2018-06-28T21:30:01.684Z,23.40
2018-06-28T21:32:42.462Z,23.40
2018-06-28T21:35:23.551Z,23.50
2018-06-28T21:38:02.756Z,23.50
2018-06-28T21:40:45.672Z,23.50
2018-06-28T21:46:08.049Z,23.50
2018-06-28T21:48:46.864Z,23.50
2018-06-28T21:54:16.331Z,23.50
2018-06-28T21:56:57.336Z,23.50
2018-06-28T21:59:39.578Z,23.50
2018-06-28T22:02:20.764Z,23.40
2018-06-28T22:05:04.125Z,23.40
2018-06-28T22:07:46.206Z,23.30
2018-06-28T22:13:06.405Z,23.20
2018-06-28T22:15:46.311Z,23.30
2018-06-28T22:18:28.262Z,23.30
2018-06-28T22:21:09.746Z,23.20
2018-06-28T22:23:52.790Z,23.20
2018-06-28T22:26:33.011Z,23.30
2018-06-28T22:29:09.204Z,23.20
2018-06-28T22:31:51.996Z,23.20
2018-06-28T22:34:32.709Z,23.20
2018-06-28T22:37:18.528Z,23.20
2018-06-28T22:40:00.345Z,23.20
2018-06-28T22:45:24.621Z,23.10
2018-06-28T22:48:05.055Z,23.10
2018-06-28T22:50:45.003Z,23.10
2018-06-28T22:53:25.893Z,23.10
2018-06-28T22:56:08.990Z,23.10
2018-06-28T22:58:49.872Z,23.10
2018-06-28T23:01:32.734Z,23.10
2018-06-28T23:04:14.121Z,23.10
2018-06-28T23:06:53.257Z,23.10
2018-06-28T23:14:56.040Z,23.10
2018-06-28T23:17:36.269Z,23.20
2018-06-28T23:20:17.649Z,23.10
2018-06-28T23:23:01.214Z,23.10
2018-06-28T23:25:42.960Z,23.10
2018-06-28T23:28:23.364Z,23.10
2018-06-28T23:31:03.365Z,23.10
2018-06-28T23:33:47.383Z,23.00
2018-06-28T23:36:26.352Z,23.10
2018-06-28T23:39:14.054Z,23.00
2018-06-28T23:44:40.847Z,23.00
2018-06-28T23:52:49.783Z,23.00
2018-06-28T23:55:29.549Z,23.00
2018-06-28T23:58:09.354Z,23.00
